VOBZ/VGA METAR and TAF weather

Enter ICAO airport designator
Station Type Date Time Source
VOBZ METAR 2022/01/26 15:30 UTC NOAA

VOBZ 261530Z 00000KT 3500 BR FEW020 BKN100 24/22 Q1012 NOSIG


Station Type Date Time Source
VOBZ Decoded METAR 2022/01/26 15:30 UTC NOAA

Vijayawada / Gannavaram, India (VOBZ) 16-32N 080-48E 24M
Jan 26, 2022 - 10:30 AM EST / 2022.01.26 1530 UTC
Wind: Calm:0
Visibility: 2 mile(s):0
Sky conditions: mostly cloudy
Weather: mist
Temperature: 75 F (24 C)
Dew Point: 71 F (22 C)
Relative Humidity: 88%
Pressure (altimeter): 29.88 in. Hg (1012 hPa)
ob: VOBZ 261530Z 00000KT 3500 BR FEW020 BKN100 24/22 Q1012 NOSIG
cycle: 15

Station Type Date Time Source
VOBZ TAF 2022/01/26 18:00 UTC NOAA

TAF VOBZ 261700Z 2618/2724 12006KT 4000 BR FEW015 SCT025
BECMG 2622/2624 VRB03T 3000 BR FEW015 SCT100
TEMPO 2700/2703 VRB03KT 3000 BR SCT010 SCT015
BECMG 2704/2706 15008KT 5000 HZ SCT015 SCT100
BECMG 2706/2708 10008KT 6000 FEW015 SCT026
BECMG 2716/2718 09005KT 5000 BR FEW020

Example: see airport list